Aircraft
UPR1037 PT-BAB ATR-72 500
SWGN
Araguaína Airport
SNQG
Cangapara Airport
Pilot:: Klebson
Aircraft:: ATR 72-600
Alternate: SBSL
Network: ivao
FLIGHT DETAILS
Distance: 309nm Duration 00h 18m
Cruise Speed: Flight Level: 10000
Validation: Validated Type Charter
Flight Fuel
ZFW: 20948
Block Fuel/Initial FOB: 2546
Flight Fuel: 2539
Cargo
Passengers: 25
Cargo: 120
ROUTE
ROUTE: dct
REMARKS:
DATE
Date: 26-04-28
Departure Time: 1848
Cargo: 120
FLIGHT DETAILS
Crashed: No
Validator Comments: Validado por Claudenir
Flight Rating: 100
LANDING ANALYSIS
Landing wind: 271º/1 kt
Landing heading: 163º
Landing VS:: -168 ft/min
Landing IAS:: 95 kt
Landing Force G: 1 G
Landing Bank: 0
Landing Pitch: 1
Landing Flaps: 100
Navigation Lights: ON
Landing Lights: ON
Beacon Lights: ON
Strobe Lights: ON
viserfly

ALTITUDE CHART

viserfly

MAIN EVENTS

DATE EVENT IAS ALTITUDE
2026-04-28 18:47:22 FLYacars version 1.3.4 0 796
2026-04-28 18:47:22 Aircraft boarding in progress 0 796
2026-04-28 18:47:22 FLAPS 50% 0 796
2026-04-28 18:47:22 Navigation Lights ON 0 796
2026-04-28 18:47:22 Beacon Lights ON 0 796
2026-04-28 18:47:22 Strobe Lights ON 0 796
2026-04-28 18:47:22 Landing Lights ON 0 796
2026-04-28 18:47:22 Starting Engine 2 0 796
2026-04-28 18:47:22 Starting Engine 1 0 796
2026-04-28 18:47:54 Aircraft taxiing to runway 3 796
2026-04-28 18:48:05 Detected Take-off roll, HDG 100, IAS 101kt, GS 106kt, G-force 1.0g, Pitch 0.7deg, Bank -0.1deg, Wind 270/01kt, Temp 15°C 101 789
2026-04-28 18:48:05 Airborne 101 789
2026-04-28 18:48:10 Gear UP, IAS 125kt, GS 127kt, ALT 66ft AGL 125 842
2026-04-28 18:48:17 FLAPS 0% 133kt, ALT 1301ft 133 1301
2026-04-28 18:49:36 Aircraft on Top Of Climb at 9907ft, IAS 241kt, GS 282kt, HDG 109deg, TAT -3deg, WIND 270/2kt 241 9907
2026-04-28 19:03:59 Aircraft on Top Of Descent at 9474ft, IAS 230kt, GS 263kt, HDG 104deg, TAT -2deg, WIND 271/2kt 230 9474
2026-04-28 19:04:04 Gear DOWN, IAS 227kt, GS 250kt, ALT 7483ft AGL 227 8197
2026-04-28 19:04:05 FLAPS 50% 227kt, ALT 8163ft 227 8163
2026-04-28 19:05:20 FLAPS 100% 171kt, ALT 3247ft 171 3247
2026-04-28 19:06:23 Landed at destination with a landing rate of -168fpm, G-force 1.0g, Pitch 1.0deg, Bank -0.3deg, HDG 163deg, IAS 95kt, GS 97kt, Wind 271/01kt, Temp 15°C 95 695
2026-04-28 19:06:33 Aircraft taxiing to apron 25 694
2026-04-28 19:06:47 Aircraft at gate/stand, ground services are moving into position, disembarkation has begun. Remaining FOB 7kg FLYacars v1.3.4 0 694
viserfly

ACARS DATA

DATE IAS GS ALTITUDE FUEL CONSUMED OAT FLIGHT STATUS
2026-04-28 18:47:52 0 0 796 1594 13 BOARDING
2026-04-28 18:48:22 172 179 1612 1605 13 TAKEOFF
2026-04-28 18:48:52 241 262 5223 1636 6 CLIMB
2026-04-28 18:49:22 232 266 8812 1665 -1 CLIMB
2026-04-28 18:49:52 249 291 9990 1694 -3 ENROUTE
2026-04-28 18:50:22 250 292 10001 1724 -3 ENROUTE
2026-04-28 18:50:52 250 292 9997 1753 -2 ENROUTE
2026-04-28 18:51:22 250 292 9997 1782 -2 ENROUTE
2026-04-28 18:51:52 249 292 10000 1811 -2 ENROUTE
2026-04-28 18:52:22 250 292 9999 1841 -2 ENROUTE
2026-04-28 18:52:52 250 292 9998 1870 -2 ENROUTE
2026-04-28 18:53:22 250 292 9998 1899 -2 ENROUTE
2026-04-28 18:53:52 250 292 9999 1928 -1 ENROUTE
2026-04-28 18:54:22 250 292 9999 1957 -2 ENROUTE
2026-04-28 18:54:52 249 293 9999 1986 -1 ENROUTE
2026-04-28 18:55:22 249 293 10000 2016 -1 ENROUTE
2026-04-28 18:55:52 249 292 9995 2045 -2 ENROUTE
2026-04-28 18:56:22 250 292 10000 2074 -2 ENROUTE
2026-04-28 18:56:52 250 292 9999 2103 -3 ENROUTE
2026-04-28 18:57:22 250 292 10000 2132 -2 ENROUTE
2026-04-28 18:57:52 250 292 9999 2162 -3 ENROUTE
2026-04-28 18:58:22 250 292 9999 2191 -3 ENROUTE
2026-04-28 18:58:52 250 292 9999 2220 -3 ENROUTE
2026-04-28 18:59:22 249 292 9999 2249 -2 ENROUTE
2026-04-28 18:59:52 250 292 10000 2278 -3 ENROUTE
2026-04-28 19:00:22 249 292 9999 2308 -2 ENROUTE
2026-04-28 19:00:52 250 292 10000 2337 -3 ENROUTE
2026-04-28 19:01:22 250 292 10000 2366 -3 ENROUTE
2026-04-28 19:01:52 250 292 10000 2395 -3 ENROUTE
2026-04-28 19:02:22 250 292 9999 2424 -3 ENROUTE
2026-04-28 19:02:52 250 292 9999 2454 -3 ENROUTE
2026-04-28 19:03:22 250 292 9999 2483 -3 ENROUTE
2026-04-28 19:03:52 250 292 10000 2512 -3 ENROUTE
2026-04-28 19:04:22 190 208 6919 2522 2 DESCENT
2026-04-28 19:04:52 166 180 5060 2525 6 DESCENT
2026-04-28 19:05:22 170 176 3155 2528 9 DESCENT
2026-04-28 19:05:52 128 130 1617 2532 12 APPROACH
2026-04-28 19:06:22 97 99 695 2535 15 ON FINAL
  • Join our VA!

    It has been 11 years of great learning, friendships, and stories.

  • Sign up now!